Time;durP1;ratioP1;P1;durP2;ratioP2;P2;SDS_P1;SDS_P2;PMS_P1;PMS_P2;Temp;Humidity;BMP_temperature;BMP_pressure;BME280_temperature;BME280_humidity;BME280_pressure;Samples;Min_cycle;Max_cycle;Signal;HPM_P1;HPM_P2
2021/04/19 00:02:21;;;;;;;16.13;10.00;;;8.90;99.90;;;;;;5018183;28;20029;-93
2021/04/19 00:04:49;;;;;;;17.23;10.43;;;8.80;99.90;;;;;;5018076;28;20034;-93
2021/04/19 00:07:17;;;;;;;17.02;10.38;;;8.80;99.90;;;;;;5018203;28;20084;-95
2021/04/19 00:09:45;;;;;;;16.95;10.45;;;8.80;99.90;;;;;;5018230;28;20029;-93
2021/04/19 00:12:13;;;;;;;17.90;9.82;;;8.80;99.90;;;;;;5018380;28;20036;-92
2021/04/19 00:14:41;;;;;;;19.05;9.77;;;8.80;99.90;;;;;;5018802;28;20034;-93
2021/04/19 00:17:08;;;;;;;14.95;8.68;;;8.80;99.90;;;;;;5017173;28;20030;-92
2021/04/19 00:19:36;;;;;;;16.40;9.13;;;8.70;99.90;;;;;;5016947;28;20057;-93
2021/04/19 00:22:04;;;;;;;16.08;9.30;;;8.70;99.90;;;;;;5017116;28;20062;-94
2021/04/19 00:24:31;;;;;;;17.25;9.40;;;8.70;99.90;;;;;;5017123;28;20022;-93
2021/04/19 00:26:59;;;;;;;16.50;9.57;;;8.70;99.90;;;;;;5016932;28;20032;-94
2021/04/19 00:29:27;;;;;;;14.98;9.43;;;8.70;99.90;;;;;;5017422;28;20026;-92
2021/04/19 00:31:54;;;;;;;16.52;9.55;;;8.70;99.90;;;;;;5016703;28;20124;-94
2021/04/19 00:34:22;;;;;;;18.20;9.35;;;8.60;99.90;;;;;;5016816;28;20032;-92
2021/04/19 00:36:50;;;;;;;13.23;8.32;;;8.60;99.90;;;;;;5016546;28;20037;-93
2021/04/19 00:39:18;;;;;;;18.85;9.20;;;8.60;99.90;;;;;;5018472;28;20299;-93
2021/04/19 00:41:46;;;;;;;15.10;8.43;;;8.60;99.90;;;;;;5017506;28;20418;-92
2021/04/19 00:44:14;;;;;;;17.80;9.80;;;8.60;99.90;;;;;;5018139;28;20025;-92
2021/04/19 00:46:42;;;;;;;15.23;9.20;;;8.70;99.90;;;;;;5017626;28;20373;-93
2021/04/19 00:49:10;;;;;;;16.60;9.48;;;8.60;99.90;;;;;;5017620;28;20142;-92
2021/04/19 00:51:39;;;;;;;14.80;9.50;;;8.60;99.90;;;;;;5017539;28;20029;-93
2021/04/19 00:54:07;;;;;;;15.45;9.65;;;8.60;99.90;;;;;;5017879;28;20048;-92
2021/04/19 00:56:35;;;;;;;14.68;9.27;;;8.60;99.90;;;;;;5017297;28;20030;-93
2021/04/19 00:59:03;;;;;;;20.67;10.18;;;8.60;99.90;;;;;;5016597;28;20459;-93
2021/04/19 01:01:33;;;;;;;16.45;9.95;;;8.60;99.90;;;;;;5020169;28;20037;-93
2021/04/19 01:04:02;;;;;;;15.90;9.63;;;8.50;99.90;;;;;;5019798;28;20033;-93
2021/04/19 01:06:29;;;;;;;17.75;10.10;;;8.50;99.90;;;;;;5020416;28;20025;-93
2021/04/19 01:08:57;;;;;;;16.48;9.60;;;8.50;99.90;;;;;;5020415;28;20025;-93
2021/04/19 01:11:25;;;;;;;17.17;9.57;;;8.40;99.90;;;;;;5019723;28;20057;-93
2021/04/19 01:13:52;;;;;;;18.95;10.13;;;8.40;99.90;;;;;;5019824;28;20029;-93
2021/04/19 01:16:20;;;;;;;16.27;10.70;;;8.40;99.90;;;;;;5019503;28;20032;-94
2021/04/19 01:18:48;;;;;;;17.27;9.98;;;8.30;99.90;;;;;;5019923;28;20043;-93
2021/04/19 01:21:16;;;;;;;20.00;11.13;;;8.30;99.90;;;;;;5020584;28;20082;-93
2021/04/19 01:23:44;;;;;;;18.05;10.65;;;8.20;99.90;;;;;;5020398;28;20029;-93
2021/04/19 01:26:11;;;;;;;22.58;9.38;;;8.20;99.90;;;;;;5020638;28;20078;-93
2021/04/19 01:28:40;;;;;;;18.58;10.52;;;8.20;99.90;;;;;;5020675;28;20032;-93
2021/04/19 01:31:06;;;;;;;18.13;10.05;;;8.10;99.90;;;;;;5020212;28;20029;-92
2021/04/19 01:33:36;;;;;;;15.85;9.00;;;8.10;99.90;;;;;;5020394;28;20053;-92
2021/04/19 01:36:03;;;;;;;13.82;8.02;;;8.00;99.90;;;;;;5020215;28;20376;-93
2021/04/19 01:38:31;;;;;;;14.27;7.47;;;8.00;99.90;;;;;;5020300;28;20025;-94
2021/04/19 01:40:59;;;;;;;15.43;8.25;;;7.90;99.90;;;;;;5019306;28;20017;-93
2021/04/19 01:43:26;;;;;;;13.43;8.10;;;7.90;99.90;;;;;;5021907;28;20022;-93
2021/04/19 01:45:54;;;;;;;13.30;8.45;;;7.90;99.90;;;;;;5023354;28;20064;-93
2021/04/19 01:48:25;;;;;;;19.45;10.43;;;7.80;99.90;;;;;;5023126;28;20028;-93
2021/04/19 01:50:55;;;;;;;22.27;11.18;;;7.80;99.90;;;;;;5023767;28;20052;-92
2021/04/19 01:53:23;;;;;;;16.23;9.70;;;7.80;99.90;;;;;;5023200;28;20025;-92
2021/04/19 01:55:51;;;;;;;13.88;8.60;;;7.80;99.90;;;;;;5023362;28;20076;-93
2021/04/19 01:58:25;;;;;;;17.95;9.85;;;7.80;99.90;;;;;;5023173;28;20022;-93
2021/04/19 02:00:58;;;;;;;18.92;9.55;;;7.80;99.90;;;;;;5025944;28;20042;-93
2021/04/19 02:04:03;;;;;;;13.60;8.57;;;7.70;99.90;;;;;;5032367;28;20057;-93
2021/04/19 02:06:42;;;;;;;18.35;9.02;;;7.70;99.90;;;;;;5032907;28;20056;-92
2021/04/19 02:09:27;;;;;;;13.57;8.40;;;7.70;99.90;;;;;;5033789;28;20046;-91
2021/04/19 02:12:01;;;;;;;19.10;7.97;;;7.70;99.90;;;;;;5032821;28;20029;-93
2021/04/19 02:14:47;;;;;;;16.10;8.85;;;7.70;99.90;;;;;;5024858;28;20396;-93
2021/04/19 02:17:34;;;;;;;13.80;8.43;;;7.60;99.90;;;;;;5022338;28;20026;-93
2021/04/19 02:20:16;;;;;;;13.50;8.27;;;7.60;99.90;;;;;;5021209;28;20422;-92
2021/04/19 02:23:07;;;;;;;13.25;7.68;;;7.70;99.90;;;;;;5020024;28;20026;-93
2021/04/19 02:25:42;;;;;;;13.55;7.85;;;7.60;99.90;;;;;;5006145;28;20034;-92
2021/04/19 02:28:26;;;;;;;12.52;7.28;;;7.70;99.90;;;;;;5019851;28;20057;-93
2021/04/19 02:31:02;;;;;;;13.55;7.55;;;7.60;99.90;;;;;;5019188;28;20037;-92
2021/04/19 02:33:41;;;;;;;16.50;7.72;;;7.60;99.90;;;;;;5018986;28;20026;-93
2021/04/19 02:36:11;;;;;;;12.85;7.75;;;7.60;99.90;;;;;;5019064;28;20065;-92
2021/04/19 02:38:44;;;;;;;14.48;7.88;;;7.60;99.90;;;;;;5019005;28;20056;-93
2021/04/19 02:41:15;;;;;;;20.08;9.65;;;7.60;99.90;;;;;;5019863;28;20022;-92
2021/04/19 02:43:43;;;;;;;19.45;10.23;;;7.60;99.90;;;;;;5019884;28;20030;-93
2021/04/19 02:46:10;;;;;;;24.95;13.68;;;7.60;99.90;;;;;;5019727;28;20080;-93
2021/04/19 02:48:39;;;;;;;22.02;12.20;;;7.60;99.90;;;;;;5019651;28;20034;-93
2021/04/19 02:51:08;;;;;;;19.92;10.27;;;7.70;99.90;;;;;;5019499;28;20089;-92
2021/04/19 02:53:38;;;;;;;18.73;10.63;;;7.70;99.90;;;;;;5019371;28;20437;-93
2021/04/19 02:56:08;;;;;;;19.30;11.05;;;7.70;99.90;;;;;;5019549;28;20026;-93
2021/04/19 02:58:48;;;;;;;19.02;10.50;;;7.80;99.90;;;;;;5019730;28;20029;-93
2021/04/19 03:01:31;;;;;;;18.05;11.30;;;7.80;99.90;;;;;;5018412;28;20346;-93
2021/04/19 03:04:13;;;;;;;18.50;10.80;;;7.80;99.90;;;;;;5018390;28;20033;-93
2021/04/19 03:06:44;;;;;;;19.95;10.75;;;7.80;99.90;;;;;;5018495;28;20073;-93
2021/04/19 03:09:15;;;;;;;19.20;10.25;;;7.80;99.90;;;;;;5018609;28;20075;-92
2021/04/19 03:12:03;;;;;;;18.80;10.55;;;7.80;99.90;;;;;;5018596;28;20284;-91
2021/04/19 03:14:40;;;;;;;19.45;10.55;;;7.90;99.90;;;;;;5018261;28;20113;-92
2021/04/19 03:17:13;;;;;;;21.10;11.13;;;7.90;99.90;;;;;;5018136;28;20053;-92
2021/04/19 03:19:51;;;;;;;19.83;11.20;;;7.90;99.90;;;;;;5018403;28;20021;-92
2021/04/19 03:22:20;;;;;;;18.88;10.82;;;7.90;99.90;;;;;;5018894;28;20049;-91
2021/04/19 03:24:48;;;;;;;18.70;10.50;;;7.90;99.90;;;;;;5019533;28;20022;-92
2021/04/19 03:27:17;;;;;;;16.90;9.80;;;8.00;99.90;;;;;;5018849;28;20121;-91
2021/04/19 03:29:46;;;;;;;20.35;11.55;;;8.00;99.90;;;;;;5020125;28;20033;-92
2021/04/19 03:32:18;;;;;;;23.60;12.70;;;8.00;99.90;;;;;;5018917;28;20033;-92
2021/04/19 03:34:48;;;;;;;22.77;13.23;;;8.10;99.90;;;;;;5019087;28;20022;-92
2021/04/19 03:37:20;;;;;;;21.35;11.88;;;8.10;99.90;;;;;;5018610;28;20026;-93
2021/04/19 03:39:57;;;;;;;22.67;12.13;;;8.10;99.90;;;;;;5019068;28;20045;-92
2021/04/19 03:42:26;;;;;;;23.73;12.23;;;8.20;99.90;;;;;;5017722;28;20418;-93
2021/04/19 03:44:56;;;;;;;23.55;12.85;;;8.20;99.90;;;;;;5017750;28;20026;-93
2021/04/19 03:47:26;;;;;;;22.50;11.98;;;8.20;99.90;;;;;;5017611;28;20040;-92
2021/04/19 03:49:59;;;;;;;24.17;13.23;;;8.20;99.90;;;;;;5017801;28;20034;-94
2021/04/19 03:52:36;;;;;;;23.88;13.75;;;8.20;99.90;;;;;;5017445;28;20041;-92
2021/04/19 03:55:10;;;;;;;23.90;13.73;;;8.20;99.90;;;;;;5017314;28;20048;-88
2021/04/19 03:57:41;;;;;;;25.70;13.82;;;8.20;99.90;;;;;;5017262;28;20053;-88
2021/04/19 04:00:17;;;;;;;24.77;13.85;;;8.30;99.90;;;;;;5017052;28;20046;-88
2021/04/19 04:02:54;;;;;;;26.80;15.80;;;8.20;99.90;;;;;;5017620;28;20022;-88
2021/04/19 04:05:23;;;;;;;23.40;13.65;;;8.30;99.90;;;;;;5017528;28;20018;-89
2021/04/19 04:07:51;;;;;;;28.63;14.98;;;8.30;99.90;;;;;;5017991;28;20379;-89
2021/04/19 04:10:21;;;;;;;25.77;14.15;;;8.30;99.90;;;;;;5017828;28;20022;-89
2021/04/19 04:12:49;;;;;;;23.10;13.25;;;8.30;99.90;;;;;;5017839;28;20037;-88
2021/04/19 04:15:18;;;;;;;20.50;12.48;;;8.30;99.90;;;;;;5017899;28;20029;-89
2021/04/19 04:17:46;;;;;;;21.17;12.75;;;8.30;99.90;;;;;;5018914;28;20030;-89
2021/04/19 04:20:14;;;;;;;23.77;12.60;;;8.30;99.90;;;;;;5017599;28;20044;-88
2021/04/19 04:22:43;;;;;;;21.45;12.32;;;8.30;99.90;;;;;;5017381;28;20309;-88
2021/04/19 04:25:12;;;;;;;23.80;13.65;;;8.30;99.90;;;;;;5017277;28;20026;-88
2021/04/19 04:27:39;;;;;;;21.65;12.45;;;8.40;99.90;;;;;;5017032;28;20030;-89
2021/04/19 04:30:08;;;;;;;26.50;13.88;;;8.40;99.90;;;;;;5016960;28;20124;-89
2021/04/19 04:32:35;;;;;;;23.42;13.35;;;8.40;99.90;;;;;;5016852;28;20036;-89
2021/04/19 04:35:03;;;;;;;27.00;14.27;;;8.40;99.90;;;;;;5016838;28;20148;-89
2021/04/19 04:37:31;;;;;;;26.90;13.88;;;8.40;99.90;;;;;;5016736;28;20036;-89
2021/04/19 04:39:59;;;;;;;25.45;12.77;;;8.40;99.90;;;;;;5016698;28;20053;-89
2021/04/19 04:42:29;;;;;;;26.13;13.05;;;8.40;99.90;;;;;;5016982;28;20490;-89
2021/04/19 04:44:57;;;;;;;24.83;13.60;;;8.40;99.90;;;;;;5017723;28;20036;-89
2021/04/19 04:47:48;;;;;;;25.95;13.32;;;8.40;99.90;;;;;;5017508;28;20022;-88
2021/04/19 04:50:36;;;;;;;22.90;13.23;;;8.40;99.90;;;;;;5017494;28;20029;-88
2021/04/19 04:53:11;;;;;;;22.38;12.48;;;8.40;99.90;;;;;;5017552;28;20334;-89
2021/04/19 04:55:40;;;;;;;25.33;13.15;;;8.50;99.90;;;;;;5017426;28;20029;-89
2021/04/19 04:58:09;;;;;;;24.77;13.38;;;8.50;99.90;;;;;;5017785;28;20026;-88
2021/04/19 05:00:39;;;;;;;25.80;11.93;;;8.50;99.90;;;;;;5017116;28;20458;-89
2021/04/19 05:03:11;;;;;;;21.33;13.18;;;8.50;99.90;;;;;;5016502;28;20410;-89
2021/04/19 05:05:41;;;;;;;22.05;12.57;;;8.40;99.90;;;;;;5016535;28;20080;-89
2021/04/19 05:08:12;;;;;;;22.55;12.70;;;8.50;99.90;;;;;;5016183;28;20029;-89
2021/04/19 05:10:44;;;;;;;22.38;12.65;;;8.50;99.90;;;;;;5016503;28;20022;-89
2021/04/19 05:13:18;;;;;;;24.00;12.52;;;8.50;99.90;;;;;;5016217;28;20026;-88
2021/04/19 05:15:51;;;;;;;26.05;13.40;;;8.60;99.90;;;;;;5016851;28;20022;-89
2021/04/19 05:18:19;;;;;;;22.23;12.65;;;8.60;99.90;;;;;;5018910;28;20029;-88
2021/04/19 05:20:48;;;;;;;24.33;14.02;;;8.60;99.90;;;;;;5020137;28;20022;-90
2021/04/19 05:23:17;;;;;;;26.20;12.98;;;8.60;99.90;;;;;;5021452;28;20014;-90
2021/04/19 05:25:45;;;;;;;27.58;13.93;;;8.70;99.90;;;;;;5021303;28;20025;-91
2021/04/19 05:28:18;;;;;;;25.40;13.75;;;8.70;99.90;;;;;;5021047;28;20422;-91
2021/04/19 05:30:49;;;;;;;25.92;15.48;;;8.70;99.90;;;;;;5021706;28;20041;-91
2021/04/19 05:33:17;;;;;;;27.10;14.15;;;8.70;99.90;;;;;;5020946;28;20030;-90
2021/04/19 05:35:45;;;;;;;24.60;13.48;;;8.70;99.90;;;;;;5020882;28;20028;-91
2021/04/19 05:38:14;;;;;;;23.75;14.43;;;8.70;99.90;;;;;;5020543;28;20045;-90
2021/04/19 05:40:45;;;;;;;23.52;13.50;;;8.70;99.90;;;;;;5020800;28;20029;-91
2021/04/19 05:43:14;;;;;;;27.00;15.38;;;8.80;99.90;;;;;;5020164;28;20108;-85
2021/04/19 05:45:43;;;;;;;25.40;13.75;;;8.80;99.90;;;;;;5020970;28;20085;-88
2021/04/19 05:48:11;;;;;;;25.33;14.15;;;8.80;99.90;;;;;;5019652;28;20026;-90
2021/04/19 05:50:40;;;;;;;26.95;15.45;;;8.80;99.90;;;;;;5019413;28;20053;-82
2021/04/19 05:53:13;;;;;;;25.52;14.52;;;8.90;99.90;;;;;;5019497;28;20025;-84
2021/04/19 05:55:42;;;;;;;24.33;14.13;;;9.00;99.90;;;;;;5020110;28;20025;-73
2021/04/19 05:58:16;;;;;;;23.88;12.55;;;9.20;99.90;;;;;;5020074;28;20322;-81
2021/04/19 06:01:04;;;;;;;24.30;13.18;;;9.30;99.90;;;;;;5033299;28;20050;-91
2021/04/19 06:03:55;;;;;;;24.58;13.77;;;9.40;99.90;;;;;;5023071;28;20373;-79
2021/04/19 06:06:41;;;;;;;22.25;12.75;;;9.50;99.90;;;;;;5040944;28;20021;-86
2021/04/19 06:09:19;;;;;;;26.27;13.70;;;9.60;99.90;;;;;;5023319;28;20025;-87
2021/04/19 06:11:58;;;;;;;26.77;14.30;;;9.70;99.90;;;;;;5040841;28;20029;-88
2021/04/19 06:14:32;;;;;;;24.25;13.77;;;9.70;99.90;;;;;;5023354;28;20115;-85
2021/04/19 06:17:03;;;;;;;24.92;15.18;;;9.70;99.90;;;;;;5023306;28;20328;-91
2021/04/19 06:19:37;;;;;;;25.17;14.73;;;9.70;99.90;;;;;;5023162;28;20022;-81
2021/04/19 06:22:06;;;;;;;27.15;15.00;;;9.70;99.90;;;;;;5040418;28;20028;-88
2021/04/19 06:24:34;;;;;;;29.17;14.00;;;9.60;99.90;;;;;;5022395;28;20096;-83
2021/04/19 06:27:02;;;;;;;31.48;15.05;;;9.60;99.90;;;;;;5022139;28;20025;-91
2021/04/19 06:29:30;;;;;;;27.50;15.70;;;9.50;99.90;;;;;;5021670;28;20021;-87
2021/04/19 06:31:58;;;;;;;29.23;15.48;;;9.50;99.90;;;;;;5021937;28;20095;-87
2021/04/19 06:34:26;;;;;;;28.65;16.48;;;9.50;99.90;;;;;;5022229;28;20026;-86
2021/04/19 06:36:54;;;;;;;34.17;16.48;;;9.50;99.90;;;;;;5039295;28;20107;-88
2021/04/19 06:39:21;;;;;;;34.05;16.98;;;9.50;99.90;;;;;;5039450;28;20084;-90
2021/04/19 06:41:50;;;;;;;32.22;18.05;;;9.60;99.90;;;;;;5021855;28;20445;-90
2021/04/19 06:44:19;;;;;;;33.90;18.23;;;9.60;99.90;;;;;;5021814;28;20303;-80
2021/04/19 06:46:47;;;;;;;33.33;18.67;;;9.50;99.90;;;;;;5022306;28;20025;-87
2021/04/19 06:49:14;;;;;;;32.80;18.13;;;9.40;99.90;;;;;;5022288;28;20040;-83
2021/04/19 06:51:43;;;;;;;34.97;19.15;;;9.30;99.90;;;;;;5022361;28;20021;-85
2021/04/19 06:54:12;;;;;;;33.92;18.55;;;9.30;99.90;;;;;;5040114;28;20320;-84
2021/04/19 06:56:44;;;;;;;34.78;18.60;;;9.20;99.90;;;;;;5022533;28;20299;-90
2021/04/19 06:59:16;;;;;;;35.65;18.20;;;9.10;99.90;;;;;;5022565;28;20029;-82
2021/04/19 07:01:44;;;;;;;33.78;18.92;;;9.10;99.90;;;;;;5039534;28;20033;-82
2021/04/19 07:04:20;;;;;;;34.97;18.30;;;9.00;99.90;;;;;;5022371;28;20030;-84
2021/04/19 07:06:49;;;;;;;34.92;17.20;;;8.90;99.90;;;;;;5020965;28;20033;-81
2021/04/19 07:09:27;;;;;;;35.67;19.33;;;8.90;99.90;;;;;;5038872;28;20025;-81
2021/04/19 07:12:04;;;;;;;33.85;18.40;;;8.90;99.90;;;;;;5020944;28;20053;-81
2021/04/19 07:14:37;;;;;;;33.40;17.70;;;8.90;99.90;;;;;;5020864;28;20037;-83
2021/04/19 07:17:06;;;;;;;38.78;19.50;;;8.90;99.90;;;;;;5020660;28;20026;-82
2021/04/19 07:19:34;;;;;;;34.45;18.90;;;8.90;99.90;;;;;;5038638;28;20377;-83
2021/04/19 07:22:02;;;;;;;35.22;18.50;;;8.90;99.90;;;;;;5038481;28;20028;-82
2021/04/19 07:24:30;;;;;;;31.45;17.67;;;9.00;99.90;;;;;;5020633;28;20026;-83
2021/04/19 07:26:58;;;;;;;36.72;19.52;;;9.10;99.90;;;;;;5020968;28;20025;-81
2021/04/19 07:29:26;;;;;;;33.60;19.58;;;9.20;99.90;;;;;;5021546;28;20021;-81
2021/04/19 07:31:56;;;;;;;35.50;19.85;;;9.30;99.90;;;;;;5038928;28;20448;-79
2021/04/19 07:34:30;;;;;;;36.55;20.80;;;9.50;99.90;;;;;;5038952;28;20025;-83
2021/04/19 07:37:03;;;;;;;37.95;20.77;;;9.50;99.90;;;;;;5021419;28;20029;-84
2021/04/19 07:39:36;;;;;;;37.53;20.80;;;9.60;99.90;;;;;;5021616;28;20076;-77
2021/04/19 07:42:10;;;;;;;41.55;23.00;;;9.60;99.90;;;;;;5020899;28;20026;-81
2021/04/19 07:44:51;;;;;;;38.95;20.90;;;9.60;99.90;;;;;;5039229;28;20022;-83
2021/04/19 07:47:31;;;;;;;34.13;19.67;;;9.70;99.90;;;;;;5020477;28;20025;-85
2021/04/19 07:50:10;;;;;;;34.65;19.80;;;9.80;99.90;;;;;;5020386;28;20028;-88
2021/04/19 07:53:09;;;;;;;33.22;20.17;;;9.90;99.90;;;;;;5038208;28;20418;-88
2021/04/19 07:55:47;;;;;;;36.47;20.30;;;10.10;99.90;;;;;;5037763;28;20025;-83
2021/04/19 07:58:21;;;;;;;34.13;18.88;;;10.20;99.90;;;;;;5037684;28;20413;-81
2021/04/19 08:00:51;;;;;;;32.42;18.55;;;10.40;99.90;;;;;;5016651;28;20050;-82
2021/04/19 08:03:22;;;;;;;31.45;18.35;;;10.60;99.90;;;;;;5017826;28;20025;-80
2021/04/19 08:05:53;;;;;;;32.47;18.15;;;10.80;99.90;;;;;;5016514;28;20021;-81
2021/04/19 08:08:31;;;;;;;30.83;17.88;;;11.00;99.90;;;;;;5017058;28;20026;-93
2021/04/19 08:11:09;;;;;;;27.40;16.77;;;11.20;99.90;;;;;;5018554;28;20028;-81
2021/04/19 08:13:39;;;;;;;32.20;16.95;;;11.30;99.90;;;;;;5018516;28;20030;-80
2021/04/19 08:16:19;;;;;;;30.70;17.65;;;11.30;99.90;;;;;;5018347;28;20024;-78
2021/04/19 08:18:47;;;;;;;30.65;17.63;;;11.30;99.90;;;;;;5018373;28;20014;-75
2021/04/19 08:21:26;;;;;;;29.85;17.50;;;11.30;99.90;;;;;;5018606;28;20029;-79
2021/04/19 08:23:54;;;;;;;31.60;15.75;;;11.40;99.90;;;;;;5018399;28;20018;-81
2021/04/19 08:26:22;;;;;;;26.63;15.63;;;11.40;99.90;;;;;;5016887;28;20062;-81
2021/04/19 08:28:51;;;;;;;28.10;16.48;;;11.50;99.90;;;;;;5016212;28;20076;-79
2021/04/19 08:31:21;;;;;;;26.45;16.17;;;11.60;99.90;;;;;;5017460;28;20103;-77
2021/04/19 08:33:49;;;;;;;24.35;13.88;;;11.70;99.90;;;;;;5017553;28;20030;-81
2021/04/19 08:36:19;;;;;;;25.05;15.45;;;11.90;99.90;;;;;;5016011;28;20377;-82
2021/04/19 08:38:48;;;;;;;26.05;14.13;;;12.00;99.90;;;;;;5016159;28;20022;-84
2021/04/19 08:41:17;;;;;;;21.60;13.38;;;12.10;99.90;;;;;;5015875;28;20026;-83
2021/04/19 08:43:44;;;;;;;24.98;15.57;;;12.10;99.90;;;;;;5017437;28;20353;-83
2021/04/19 08:46:16;;;;;;;26.52;14.80;;;12.20;99.90;;;;;;5017338;28;20022;-83
2021/04/19 08:48:44;;;;;;;23.92;15.43;;;12.20;99.90;;;;;;5016903;28;20026;-83
2021/04/19 08:51:13;;;;;;;24.42;14.63;;;12.30;99.90;;;;;;5018037;28;20037;-83
2021/04/19 08:53:40;;;;;;;25.30;15.02;;;12.30;99.90;;;;;;5018791;28;20026;-83
2021/04/19 08:56:08;;;;;;;21.63;13.18;;;12.40;99.90;;;;;;5017792;28;20330;-83
2021/04/19 08:58:35;;;;;;;21.20;12.65;;;12.40;99.90;;;;;;5018157;28;20018;-83
2021/04/19 09:01:03;;;;;;;20.25;12.00;;;12.40;99.90;;;;;;5016590;28;20084;-83
2021/04/19 09:03:34;;;;;;;18.88;11.68;;;12.40;99.90;;;;;;5018164;28;20084;-83
2021/04/19 09:06:16;;;;;;;20.92;12.50;;;12.40;99.90;;;;;;5016268;28;20034;-83
2021/04/19 09:08:43;;;;;;;20.58;11.50;;;12.40;99.90;;;;;;5015751;28;20426;-83
2021/04/19 09:11:11;;;;;;;17.05;11.10;;;12.50;99.90;;;;;;5017181;28;20034;-83
2021/04/19 09:13:44;;;;;;;20.67;11.00;;;12.60;99.90;;;;;;5015834;28;20056;-84
2021/04/19 09:16:19;;;;;;;16.98;10.93;;;12.60;99.90;;;;;;5015832;28;20088;-84
2021/04/19 09:18:58;;;;;;;16.10;9.50;;;12.70;99.90;;;;;;5015635;28;20028;-83
2021/04/19 09:21:36;;;;;;;14.90;9.73;;;12.70;99.90;;;;;;5015533;28;20026;-84
2021/04/19 09:24:06;;;;;;;18.77;9.82;;;12.80;99.90;;;;;;5015713;28;20061;-83
2021/04/19 09:26:45;;;;;;;14.68;10.65;;;12.90;99.90;;;;;;5015588;28;20030;-84
2021/04/19 09:29:38;;;;;;;15.63;11.02;;;13.00;99.90;;;;;;5016400;28;20021;-84
2021/04/19 09:32:08;;;;;;;16.90;11.20;;;13.30;99.90;;;;;;5017376;28;20061;-83
2021/04/19 09:34:54;;;;;;;19.80;12.55;;;13.40;99.90;;;;;;5016345;28;20030;-84
2021/04/19 09:37:54;;;;;;;20.17;12.03;;;13.60;99.90;;;;;;5017450;28;20025;-84
2021/04/19 09:40:24;;;;;;;19.73;12.43;;;13.70;99.60;;;;;;5017625;28;20024;-83
2021/04/19 09:43:06;;;;;;;22.05;12.43;;;13.60;99.90;;;;;;5017442;28;20060;-84
2021/04/19 09:45:54;;;;;;;22.27;14.35;;;13.60;99.90;;;;;;5016049;28;20056;-83
2021/04/19 09:48:31;;;;;;;20.85;13.50;;;13.60;99.90;;;;;;5015430;28;20357;-84
2021/04/19 09:51:14;;;;;;;20.08;13.98;;;13.60;99.90;;;;;;5016424;28;20022;-84
2021/04/19 09:53:51;;;;;;;22.45;14.10;;;13.60;99.90;;;;;;5016689;28;20025;-83
2021/04/19 09:56:24;;;;;;;22.52;15.48;;;13.80;99.90;;;;;;5016306;28;20021;-83
2021/04/19 09:58:53;;;;;;;22.60;15.02;;;14.00;99.90;;;;;;5016594;28;20069;-83
2021/04/19 10:01:22;;;;;;;23.73;16.23;;;14.20;99.10;;;;;;5033759;28;20041;-83
2021/04/19 10:03:55;;;;;;;22.50;14.88;;;14.40;99.10;;;;;;5019999;28;20100;-83
2021/04/19 10:06:26;;;;;;;21.52;15.05;;;14.40;97.50;;;;;;5039863;28;20101;-83
2021/04/19 10:08:56;;;;;;;21.60;14.45;;;14.40;97.70;;;;;;5040597;28;20025;-82
2021/04/19 10:11:26;;;;;;;21.77;14.57;;;14.40;98.50;;;;;;5023051;28;20057;-84
2021/04/19 10:13:55;;;;;;;23.10;14.10;;;14.40;98.10;;;;;;5040524;28;20100;-81
2021/04/19 10:16:23;;;;;;;20.02;13.77;;;14.40;97.20;;;;;;5023768;28;20029;-84
2021/04/19 10:18:54;;;;;;;20.85;14.25;;;14.40;96.00;;;;;;5025055;28;20080;-80
2021/04/19 10:21:30;;;;;;;19.08;14.10;;;14.40;97.20;;;;;;5024678;28;20028;-86
2021/04/19 10:24:01;;;;;;;21.55;14.50;;;14.40;96.90;;;;;;5043550;28;20014;-83
2021/04/19 10:26:41;;;;;;;23.55;15.20;;;14.40;97.40;;;;;;5040515;28;20422;-81
2021/04/19 10:29:22;;;;;;;20.38;13.38;;;14.40;97.00;;;;;;5021831;28;20120;-79
2021/04/19 10:32:01;;;;;;;19.27;12.75;;;14.30;96.90;;;;;;5021796;28;20112;-81
2021/04/19 10:34:31;;;;;;;23.95;15.65;;;14.30;96.50;;;;;;5039319;28;20048;-81
2021/04/19 10:37:05;;;;;;;23.67;15.65;;;14.20;96.70;;;;;;5021557;28;20029;-78
2021/04/19 10:39:34;;;;;;;21.25;15.13;;;14.10;96.70;;;;;;5021624;28;20025;-79
2021/04/19 10:42:05;;;;;;;22.17;14.40;;;14.00;97.00;;;;;;5039284;28;20286;-80
2021/04/19 10:44:41;;;;;;;22.85;15.10;;;14.00;97.60;;;;;;5021495;28;20413;-80
2021/04/19 10:47:12;;;;;;;23.58;16.13;;;13.80;97.30;;;;;;5039215;28;20031;-80
2021/04/19 10:49:41;;;;;;;26.95;16.95;;;13.70;97.50;;;;;;5021826;28;20025;-80
2021/04/19 10:52:11;;;;;;;25.85;16.88;;;13.60;97.20;;;;;;5022240;28;20033;-80
2021/04/19 10:54:41;;;;;;;26.95;17.50;;;13.70;97.60;;;;;;5022219;28;20026;-80
2021/04/19 10:57:20;;;;;;;26.80;17.70;;;13.80;98.00;;;;;;5039685;28;20029;-80
2021/04/19 10:59:49;;;;;;;24.02;15.57;;;13.90;97.70;;;;;;5039813;28;20067;-80
2021/04/19 11:02:33;;;;;;;23.92;15.80;;;14.00;97.10;;;;;;5039593;28;20362;-80
2021/04/19 11:05:02;;;;;;;22.63;15.23;;;14.20;97.30;;;;;;5039578;28;20140;-80
2021/04/19 11:07:32;;;;;;;23.50;15.40;;;14.30;96.40;;;;;;5039038;28;20025;-80
2021/04/19 11:10:26;;;;;;;23.15;13.98;;;14.40;96.20;;;;;;5021184;28;20116;-80
2021/04/19 11:13:01;;;;;;;21.27;13.93;;;14.50;94.80;;;;;;5018780;28;20049;-80
2021/04/19 11:15:43;;;;;;;21.13;14.40;;;14.70;95.10;;;;;;5037279;28;20049;-80
2021/04/19 11:18:23;;;;;;;19.77;12.68;;;14.80;93.70;;;;;;5020915;28;20029;-80
2021/04/19 11:20:57;;;;;;;15.38;10.55;;;15.00;92.60;;;;;;5020751;28;20336;-80
2021/04/19 11:23:28;;;;;;;16.80;11.23;;;15.10;91.80;;;;;;5038345;28;20417;-81
2021/04/19 11:25:58;;;;;;;14.18;10.07;;;15.10;91.80;;;;;;5038255;28;20032;-81
2021/04/19 11:28:33;;;;;;;14.68;10.35;;;15.20;91.70;;;;;;5021164;28;20021;-81
2021/04/19 11:31:16;;;;;;;16.17;10.93;;;15.20;92.10;;;;;;5021464;28;20033;-80
2021/04/19 11:33:45;;;;;;;15.60;10.10;;;15.30;90.70;;;;;;5039364;28;20076;-80
2021/04/19 11:36:12;;;;;;;17.52;11.07;;;15.50;87.90;;;;;;5038822;28;20036;-80
2021/04/19 11:38:41;;;;;;;19.30;13.90;;;15.60;89.60;;;;;;5021558;28;20017;-80
2021/04/19 11:41:14;;;;;;;15.85;10.93;;;15.70;88.40;;;;;;5038884;28;20361;-80
2021/04/19 11:43:52;;;;;;;16.50;11.20;;;15.80;88.60;;;;;;5021384;28;20018;-80
2021/04/19 11:46:22;;;;;;;18.35;12.05;;;15.90;87.80;;;;;;5021134;28;20030;-80
2021/04/19 11:48:52;;;;;;;24.38;16.60;;;15.90;86.70;;;;;;5037972;28;20025;-81
2021/04/19 11:51:21;;;;;;;24.23;16.33;;;16.00;88.50;;;;;;5020118;28;20430;-81
2021/04/19 11:53:50;;;;;;;26.67;16.85;;;16.10;89.30;;;;;;5037795;28;20484;-81
2021/04/19 11:56:18;;;;;;;15.18;10.35;;;16.30;89.70;;;;;;5037890;28;20116;-80
2021/04/19 11:58:50;;;;;;;15.27;10.77;;;16.30;84.80;;;;;;5037625;28;20095;-81
2021/04/19 12:01:21;;;;;;;12.27;8.73;;;16.30;84.60;;;;;;5037240;28;20078;-80
2021/04/19 12:03:53;;;;;;;12.57;8.93;;;16.30;84.70;;;;;;5037718;28;20017;-78
2021/04/19 12:06:24;;;;;;;12.23;8.73;;;16.40;84.20;;;;;;5019841;28;20493;-80
2021/04/19 12:08:52;;;;;;;14.93;9.98;;;16.50;84.00;;;;;;5037934;28;20025;-81
2021/04/19 12:11:22;;;;;;;15.63;11.32;;;16.80;83.70;;;;;;5021034;28;20026;-81
2021/04/19 12:14:01;;;;;;;9.90;6.40;;;17.00;81.50;;;;;;5038510;28;20417;-82
2021/04/19 12:16:30;;;;;;;11.40;8.00;;;17.20;74.70;;;;;;5038523;28;20033;-81
2021/04/19 12:18:58;;;;;;;10.40;7.90;;;17.20;74.40;;;;;;5020912;28;20318;-82
2021/04/19 12:21:27;;;;;;;10.98;8.27;;;17.30;75.60;;;;;;5038449;28;20075;-82
2021/04/19 12:23:54;;;;;;;13.65;9.35;;;17.30;75.00;;;;;;5038632;28;20125;-77
2021/04/19 12:26:22;;;;;;;13.10;9.38;;;17.30;75.60;;;;;;5037570;28;20018;-77
2021/04/19 12:28:53;;;;;;;11.98;8.45;;;17.20;75.80;;;;;;5037513;28;20014;-79
2021/04/19 12:31:20;;;;;;;13.10;9.32;;;17.10;76.10;;;;;;5019473;28;20028;-81
2021/04/19 12:33:49;;;;;;;14.77;10.40;;;17.00;77.00;;;;;;5037003;28;20014;-79
2021/04/19 12:36:18;;;;;;;12.70;8.70;;;17.00;77.40;;;;;;5036713;28;20040;-83
2021/04/19 12:38:46;;;;;;;11.73;8.43;;;16.90;76.20;;;;;;5019469;28;20028;-83
2021/04/19 12:41:14;;;;;;;13.50;9.20;;;16.90;73.90;;;;;;5019338;28;20467;-83
2021/04/19 12:43:41;;;;;;;11.43;7.95;;;17.10;73.10;;;;;;5019358;28;20029;-83
2021/04/19 12:46:09;;;;;;;12.77;8.60;;;17.30;72.70;;;;;;5019259;28;20362;-84
2021/04/19 12:48:37;;;;;;;14.30;8.95;;;17.50;72.00;;;;;;5019888;28;20029;-83
2021/04/19 12:51:05;;;;;;;12.57;8.63;;;17.60;72.60;;;;;;5037598;28;20032;-82
2021/04/19 12:53:33;;;;;;;12.23;8.60;;;17.70;71.20;;;;;;5037645;28;20029;-81
2021/04/19 12:56:01;;;;;;;11.82;8.43;;;17.70;70.90;;;;;;5020069;28;20025;-82
2021/04/19 12:58:29;;;;;;;11.55;8.38;;;17.60;71.30;;;;;;5020165;28;20076;-81
2021/04/19 13:00:57;;;;;;;12.73;8.10;;;17.50;72.40;;;;;;5016488;28;20137;-79